sensor_id;sensor_type;location;lat;lon;timestamp;temperature;humidity
49236;DHT22;35067;48.134;8.378;2023-02-11T00:01:42;-3.40;99.90
49236;DHT22;35067;48.134;8.378;2023-02-11T00:03:43;-3.60;99.90
49236;DHT22;35067;48.134;8.378;2023-02-11T00:05:43;-3.50;99.90
49236;DHT22;35067;48.134;8.378;2023-02-11T00:07:44;-3.50;99.90
49236;DHT22;35067;48.134;8.378;2023-02-11T00:09:45;-3.60;99.90
49236;DHT22;35067;48.134;8.378;2023-02-11T00:11:45;-3.50;99.90
49236;DHT22;35067;48.134;8.378;2023-02-11T00:13:47;-3.50;99.90
49236;DHT22;35067;48.134;8.378;2023-02-11T00:15:48;-3.50;99.90
49236;DHT22;35067;48.134;8.378;2023-02-11T00:17:49;-3.60;99.90
49236;DHT22;35067;48.134;8.378;2023-02-11T00:19:52;-3.50;99.90
49236;DHT22;35067;48.134;8.378;2023-02-11T00:21:53;-3.70;99.90
49236;DHT22;35067;48.134;8.378;2023-02-11T00:23:55;-3.70;99.90
49236;DHT22;35067;48.134;8.378;2023-02-11T00:25:56;-3.60;99.90
49236;DHT22;35067;48.134;8.378;2023-02-11T00:27:57;-3.70;99.90
49236;DHT22;35067;48.134;8.378;2023-02-11T00:29:58;-3.80;99.90
49236;DHT22;35067;48.134;8.378;2023-02-11T00:31:59;-3.80;99.90
49236;DHT22;35067;48.134;8.378;2023-02-11T00:34:04;-3.70;99.90
49236;DHT22;35067;48.134;8.378;2023-02-11T00:36:07;-3.60;99.90
49236;DHT22;35067;48.134;8.378;2023-02-11T00:38:09;-3.70;99.90
49236;DHT22;35067;48.134;8.378;2023-02-11T00:40:10;-3.60;99.90
49236;DHT22;35067;48.134;8.378;2023-02-11T00:42:13;-3.60;99.90
49236;DHT22;35067;48.134;8.378;2023-02-11T00:44:14;-3.60;99.90
49236;DHT22;35067;48.134;8.378;2023-02-11T00:46:15;-3.60;99.90
49236;DHT22;35067;48.134;8.378;2023-02-11T00:48:16;-3.50;99.90
49236;DHT22;35067;48.134;8.378;2023-02-11T00:50:17;-3.50;99.90
49236;DHT22;35067;48.134;8.378;2023-02-11T00:52:17;-3.50;99.90
49236;DHT22;35067;48.134;8.378;2023-02-11T00:54:18;-3.50;99.90
49236;DHT22;35067;48.134;8.378;2023-02-11T00:56:22;-3.50;99.90
49236;DHT22;35067;48.134;8.378;2023-02-11T00:58:23;-3.60;99.90
49236;DHT22;35067;48.134;8.378;2023-02-11T01:00:24;-3.70;99.90
49236;DHT22;35067;48.134;8.378;2023-02-11T01:02:25;-3.70;99.90
49236;DHT22;35067;48.134;8.378;2023-02-11T01:04:26;-3.70;99.90
49236;DHT22;35067;48.134;8.378;2023-02-11T01:06:26;-3.70;99.90
49236;DHT22;35067;48.134;8.378;2023-02-11T01:08:27;-3.80;99.90
49236;DHT22;35067;48.134;8.378;2023-02-11T01:10:28;-3.90;99.90
49236;DHT22;35067;48.134;8.378;2023-02-11T01:12:29;-3.80;99.90
49236;DHT22;35067;48.134;8.378;2023-02-11T01:14:29;-3.80;99.90
49236;DHT22;35067;48.134;8.378;2023-02-11T01:16:30;-3.80;99.90
49236;DHT22;35067;48.134;8.378;2023-02-11T01:18:31;-3.90;99.90
49236;DHT22;35067;48.134;8.378;2023-02-11T01:20:31;-3.90;99.90
49236;DHT22;35067;48.134;8.378;2023-02-11T01:22:32;-3.90;99.90
49236;DHT22;35067;48.134;8.378;2023-02-11T01:24:33;-3.90;99.90
49236;DHT22;35067;48.134;8.378;2023-02-11T01:26:34;-3.90;99.90
49236;DHT22;35067;48.134;8.378;2023-02-11T01:28:35;-4.10;99.90
49236;DHT22;35067;48.134;8.378;2023-02-11T01:30:35;-4.20;99.90
49236;DHT22;35067;48.134;8.378;2023-02-11T01:32:37;-4.20;99.90
49236;DHT22;35067;48.134;8.378;2023-02-11T01:34:37;-4.20;99.90
49236;DHT22;35067;48.134;8.378;2023-02-11T01:36:38;-4.10;99.90
49236;DHT22;35067;48.134;8.378;2023-02-11T01:38:39;-4.00;99.90
49236;DHT22;35067;48.134;8.378;2023-02-11T01:40:45;-4.00;99.90
49236;DHT22;35067;48.134;8.378;2023-02-11T01:42:55;-3.90;99.90
49236;DHT22;35067;48.134;8.378;2023-02-11T01:44:56;-3.90;99.90
49236;DHT22;35067;48.134;8.378;2023-02-11T01:46:57;-3.90;99.90
49236;DHT22;35067;48.134;8.378;2023-02-11T01:49:15;-3.80;99.90
49236;DHT22;35067;48.134;8.378;2023-02-11T01:51:39;-3.70;99.90
49236;DHT22;35067;48.134;8.378;2023-02-11T01:53:41;-3.90;99.90
49236;DHT22;35067;48.134;8.378;2023-02-11T01:56:00;-3.90;99.90
49236;DHT22;35067;48.134;8.378;2023-02-11T01:58:21;-4.00;99.90
49236;DHT22;35067;48.134;8.378;2023-02-11T02:00:40;-4.10;99.90
49236;DHT22;35067;48.134;8.378;2023-02-11T02:02:57;-4.10;99.90
49236;DHT22;35067;48.134;8.378;2023-02-11T02:05:14;-4.10;99.90
49236;DHT22;35067;48.134;8.378;2023-02-11T02:07:47;-4.10;99.90
49236;DHT22;35067;48.134;8.378;2023-02-11T02:09:57;-4.10;99.90
49236;DHT22;35067;48.134;8.378;2023-02-11T02:12:00;-4.10;99.90
49236;DHT22;35067;48.134;8.378;2023-02-11T02:14:01;-4.00;99.90
49236;DHT22;35067;48.134;8.378;2023-02-11T02:16:05;-4.10;99.90
49236;DHT22;35067;48.134;8.378;2023-02-11T02:24:02;-4.20;99.90
49236;DHT22;35067;48.134;8.378;2023-02-11T02:40:10;-4.10;99.90
49236;DHT22;35067;48.134;8.378;2023-02-11T02:42:15;-4.10;99.90
49236;DHT22;35067;48.134;8.378;2023-02-11T02:44:18;-4.10;99.90
49236;DHT22;35067;48.134;8.378;2023-02-11T02:46:29;-4.10;99.90
49236;DHT22;35067;48.134;8.378;2023-02-11T02:48:32;-4.10;99.90
49236;DHT22;35067;48.134;8.378;2023-02-11T02:50:35;-4.00;99.90
49236;DHT22;35067;48.134;8.378;2023-02-11T03:00:19;-4.10;99.90
49236;DHT22;35067;48.134;8.378;2023-02-11T03:05:16;-4.10;99.90
49236;DHT22;35067;48.134;8.378;2023-02-11T03:09:58;-4.10;99.90
49236;DHT22;35067;48.134;8.378;2023-02-11T03:12:02;-4.00;99.90
49236;DHT22;35067;48.134;8.378;2023-02-11T03:14:07;-4.00;99.90
49236;DHT22;35067;48.134;8.378;2023-02-11T03:16:18;-4.00;99.90
49236;DHT22;35067;48.134;8.378;2023-02-11T03:18:23;-4.10;99.90
49236;DHT22;35067;48.134;8.378;2023-02-11T03:20:27;-4.10;99.90
49236;DHT22;35067;48.134;8.378;2023-02-11T03:22:36;-4.10;99.90
49236;DHT22;35067;48.134;8.378;2023-02-11T03:24:40;-4.10;99.90
49236;DHT22;35067;48.134;8.378;2023-02-11T03:26:52;-4.10;99.90
49236;DHT22;35067;48.134;8.378;2023-02-11T03:29:13;-4.10;99.90
49236;DHT22;35067;48.134;8.378;2023-02-11T03:31:21;-4.10;99.90
49236;DHT22;35067;48.134;8.378;2023-02-11T03:33:34;-4.10;99.90
49236;DHT22;35067;48.134;8.378;2023-02-11T03:35:42;-4.10;99.90
49236;DHT22;35067;48.134;8.378;2023-02-11T03:37:54;-4.00;99.90
49236;DHT22;35067;48.134;8.378;2023-02-11T03:40:16;-4.00;99.90
49236;DHT22;35067;48.134;8.378;2023-02-11T03:42:22;-4.10;99.90
49236;DHT22;35067;48.134;8.378;2023-02-11T03:44:27;-4.20;99.90
49236;DHT22;35067;48.134;8.378;2023-02-11T03:46:33;-4.20;99.90
49236;DHT22;35067;48.134;8.378;2023-02-11T03:48:54;-4.20;99.90
49236;DHT22;35067;48.134;8.378;2023-02-11T03:50:58;-4.20;99.90
49236;DHT22;35067;48.134;8.378;2023-02-11T03:53:02;-4.20;99.90
49236;DHT22;35067;48.134;8.378;2023-02-11T03:55:08;-4.20;99.90
49236;DHT22;35067;48.134;8.378;2023-02-11T03:57:11;-4.20;99.90
49236;DHT22;35067;48.134;8.378;2023-02-11T03:59:12;-4.10;99.90
49236;DHT22;35067;48.134;8.378;2023-02-11T04:01:13;-4.10;99.90
49236;DHT22;35067;48.134;8.378;2023-02-11T04:03:14;-4.20;99.90
49236;DHT22;35067;48.134;8.378;2023-02-11T04:05:15;-4.10;99.90
49236;DHT22;35067;48.134;8.378;2023-02-11T04:07:16;-4.10;99.90
49236;DHT22;35067;48.134;8.378;2023-02-11T04:09:16;-4.20;99.90
49236;DHT22;35067;48.134;8.378;2023-02-11T04:11:17;-4.20;99.90
49236;DHT22;35067;48.134;8.378;2023-02-11T04:13:18;-4.10;99.90
49236;DHT22;35067;48.134;8.378;2023-02-11T04:15:18;-4.20;99.90
49236;DHT22;35067;48.134;8.378;2023-02-11T04:17:19;-4.30;99.90
49236;DHT22;35067;48.134;8.378;2023-02-11T04:19:20;-4.40;99.90
49236;DHT22;35067;48.134;8.378;2023-02-11T04:21:20;-4.30;99.90
49236;DHT22;35067;48.134;8.378;2023-02-11T04:23:21;-4.20;99.90
49236;DHT22;35067;48.134;8.378;2023-02-11T04:25:22;-4.10;99.90
49236;DHT22;35067;48.134;8.378;2023-02-11T04:27:22;-4.10;99.90
49236;DHT22;35067;48.134;8.378;2023-02-11T04:29:23;-4.00;99.90
49236;DHT22;35067;48.134;8.378;2023-02-11T04:31:24;-4.10;99.90
49236;DHT22;35067;48.134;8.378;2023-02-11T04:33:25;-4.10;99.90
49236;DHT22;35067;48.134;8.378;2023-02-11T04:35:25;-4.10;99.90
49236;DHT22;35067;48.134;8.378;2023-02-11T04:37:26;-4.10;99.90
49236;DHT22;35067;48.134;8.378;2023-02-11T04:39:27;-4.10;99.90
49236;DHT22;35067;48.134;8.378;2023-02-11T04:41:28;-4.20;99.90
49236;DHT22;35067;48.134;8.378;2023-02-11T04:43:28;-4.10;99.90
49236;DHT22;35067;48.134;8.378;2023-02-11T04:45:29;-4.10;99.90
49236;DHT22;35067;48.134;8.378;2023-02-11T04:47:30;-4.10;99.90
49236;DHT22;35067;48.134;8.378;2023-02-11T04:49:30;-4.20;99.90
49236;DHT22;35067;48.134;8.378;2023-02-11T04:51:31;-4.20;99.90
49236;DHT22;35067;48.134;8.378;2023-02-11T04:53:32;-4.10;99.90
49236;DHT22;35067;48.134;8.378;2023-02-11T04:55:33;-4.10;99.90
49236;DHT22;35067;48.134;8.378;2023-02-11T04:57:33;-4.10;99.90
49236;DHT22;35067;48.134;8.378;2023-02-11T04:59:34;-4.00;99.90
49236;DHT22;35067;48.134;8.378;2023-02-11T05:01:35;-4.00;99.90
49236;DHT22;35067;48.134;8.378;2023-02-11T05:03:36;-4.00;99.90
49236;DHT22;35067;48.134;8.378;2023-02-11T05:05:41;-3.90;99.90
49236;DHT22;35067;48.134;8.378;2023-02-11T05:07:42;-3.90;99.90
49236;DHT22;35067;48.134;8.378;2023-02-11T05:09:42;-3.90;99.90
49236;DHT22;35067;48.134;8.378;2023-02-11T05:11:43;-3.80;99.90
49236;DHT22;35067;48.134;8.378;2023-02-11T05:13:44;-3.80;99.90
49236;DHT22;35067;48.134;8.378;2023-02-11T05:15:45;-3.80;99.90
49236;DHT22;35067;48.134;8.378;2023-02-11T05:17:46;-3.60;99.90
49236;DHT22;35067;48.134;8.378;2023-02-11T05:19:46;-3.70;99.90
49236;DHT22;35067;48.134;8.378;2023-02-11T05:21:47;-4.00;99.90
49236;DHT22;35067;48.134;8.378;2023-02-11T05:23:48;-4.10;99.90
49236;DHT22;35067;48.134;8.378;2023-02-11T05:25:49;-4.20;99.90
49236;DHT22;35067;48.134;8.378;2023-02-11T05:27:50;-4.20;99.90
49236;DHT22;35067;48.134;8.378;2023-02-11T05:29:50;-4.20;99.90
49236;DHT22;35067;48.134;8.378;2023-02-11T05:31:51;-4.30;99.90
49236;DHT22;35067;48.134;8.378;2023-02-11T05:33:52;-4.30;99.90
49236;DHT22;35067;48.134;8.378;2023-02-11T05:35:58;-4.20;99.90
49236;DHT22;35067;48.134;8.378;2023-02-11T05:37:59;-4.10;99.90
49236;DHT22;35067;48.134;8.378;2023-02-11T05:40:00;-4.00;99.90
49236;DHT22;35067;48.134;8.378;2023-02-11T05:42:01;-3.90;99.90
49236;DHT22;35067;48.134;8.378;2023-02-11T05:44:01;-3.90;99.90
49236;DHT22;35067;48.134;8.378;2023-02-11T05:46:03;-3.90;99.90
49236;DHT22;35067;48.134;8.378;2023-02-11T05:48:04;-4.00;99.90
49236;DHT22;35067;48.134;8.378;2023-02-11T05:50:05;-4.10;99.90
49236;DHT22;35067;48.134;8.378;2023-02-11T05:52:06;-4.20;99.90
49236;DHT22;35067;48.134;8.378;2023-02-11T05:54:06;-4.30;99.90
49236;DHT22;35067;48.134;8.378;2023-02-11T05:56:07;-4.30;99.90
49236;DHT22;35067;48.134;8.378;2023-02-11T05:58:09;-4.10;99.90
49236;DHT22;35067;48.134;8.378;2023-02-11T06:00:11;-4.10;99.90
49236;DHT22;35067;48.134;8.378;2023-02-11T06:02:12;-4.00;99.90
49236;DHT22;35067;48.134;8.378;2023-02-11T06:04:13;-4.20;99.90
49236;DHT22;35067;48.134;8.378;2023-02-11T06:06:13;-4.20;99.90
49236;DHT22;35067;48.134;8.378;2023-02-11T06:08:15;-4.00;99.90
49236;DHT22;35067;48.134;8.378;2023-02-11T06:10:15;-3.80;99.90
49236;DHT22;35067;48.134;8.378;2023-02-11T06:12:16;-3.70;99.90
49236;DHT22;35067;48.134;8.378;2023-02-11T06:14:17;-3.50;99.90
49236;DHT22;35067;48.134;8.378;2023-02-11T06:16:18;-3.40;99.90
49236;DHT22;35067;48.134;8.378;2023-02-11T06:18:18;-3.20;99.90
49236;DHT22;35067;48.134;8.378;2023-02-11T06:20:19;-3.00;99.90
49236;DHT22;35067;48.134;8.378;2023-02-11T06:22:20;-3.00;99.90
49236;DHT22;35067;48.134;8.378;2023-02-11T06:24:20;-2.80;99.90
49236;DHT22;35067;48.134;8.378;2023-02-11T06:26:22;-2.80;99.90
49236;DHT22;35067;48.134;8.378;2023-02-11T06:28:23;-2.60;99.90
49236;DHT22;35067;48.134;8.378;2023-02-11T06:30:23;-2.50;99.90
49236;DHT22;35067;48.134;8.378;2023-02-11T06:32:26;-2.40;99.90
49236;DHT22;35067;48.134;8.378;2023-02-11T06:34:27;-2.30;99.90
49236;DHT22;35067;48.134;8.378;2023-02-11T06:36:28;-2.20;99.90
49236;DHT22;35067;48.134;8.378;2023-02-11T06:38:29;-2.10;99.50
49236;DHT22;35067;48.134;8.378;2023-02-11T06:40:29;-2.10;99.30
49236;DHT22;35067;48.134;8.378;2023-02-11T06:42:30;-2.00;98.50
49236;DHT22;35067;48.134;8.378;2023-02-11T06:44:31;-1.90;98.50
49236;DHT22;35067;48.134;8.378;2023-02-11T06:46:31;-1.90;98.40
49236;DHT22;35067;48.134;8.378;2023-02-11T06:48:33;-1.80;99.20
49236;DHT22;35067;48.134;8.378;2023-02-11T06:50:34;-1.70;97.70
49236;DHT22;35067;48.134;8.378;2023-02-11T06:52:34;-1.60;97.80
49236;DHT22;35067;48.134;8.378;2023-02-11T06:54:35;-1.70;97.10
49236;DHT22;35067;48.134;8.378;2023-02-11T06:56:38;-1.60;97.40
49236;DHT22;35067;48.134;8.378;2023-02-11T06:58:40;-1.60;97.40
49236;DHT22;35067;48.134;8.378;2023-02-11T07:00:41;-1.50;97.20
49236;DHT22;35067;48.134;8.378;2023-02-11T07:02:42;-1.60;97.40
49236;DHT22;35067;48.134;8.378;2023-02-11T07:04:43;-1.60;97.70
49236;DHT22;35067;48.134;8.378;2023-02-11T07:06:43;-1.50;98.10
49236;DHT22;35067;48.134;8.378;2023-02-11T07:08:45;-1.60;98.20
49236;DHT22;35067;48.134;8.378;2023-02-11T07:10:45;-1.60;98.60
49236;DHT22;35067;48.134;8.378;2023-02-11T07:12:46;-1.70;99.70
49236;DHT22;35067;48.134;8.378;2023-02-11T07:14:47;-1.60;99.60
49236;DHT22;35067;48.134;8.378;2023-02-11T07:16:47;-1.40;99.30
49236;DHT22;35067;48.134;8.378;2023-02-11T07:18:48;-1.20;97.90
49236;DHT22;35067;48.134;8.378;2023-02-11T07:20:49;-1.00;97.20
49236;DHT22;35067;48.134;8.378;2023-02-11T07:22:50;-0.90;96.20
49236;DHT22;35067;48.134;8.378;2023-02-11T07:24:50;-0.80;97.10
49236;DHT22;35067;48.134;8.378;2023-02-11T07:26:52;-0.60;96.50
49236;DHT22;35067;48.134;8.378;2023-02-11T07:28:54;-0.50;97.60
49236;DHT22;35067;48.134;8.378;2023-02-11T07:30:54;-0.20;97.40
49236;DHT22;35067;48.134;8.378;2023-02-11T07:32:55;0.00;96.00
49236;DHT22;35067;48.134;8.378;2023-02-11T07:34:56;-0.20;95.20
49236;DHT22;35067;48.134;8.378;2023-02-11T07:36:57;-0.20;95.70
49236;DHT22;35067;48.134;8.378;2023-02-11T07:38:58;0.00;96.20
49236;DHT22;35067;48.134;8.378;2023-02-11T07:41:01;0.00;97.10
49236;DHT22;35067;48.134;8.378;2023-02-11T07:43:05;0.10;97.30
49236;DHT22;35067;48.134;8.378;2023-02-11T07:45:06;0.20;96.50
49236;DHT22;35067;48.134;8.378;2023-02-11T07:47:07;0.30;97.20
49236;DHT22;35067;48.134;8.378;2023-02-11T07:49:08;0.30;95.00
49236;DHT22;35067;48.134;8.378;2023-02-11T07:51:29;0.30;95.60
49236;DHT22;35067;48.134;8.378;2023-02-11T07:53:30;0.30;97.30
49236;DHT22;35067;48.134;8.378;2023-02-11T07:55:32;0.50;97.80
49236;DHT22;35067;48.134;8.378;2023-02-11T07:57:33;0.70;95.70
49236;DHT22;35067;48.134;8.378;2023-02-11T07:59:33;0.80;96.20
49236;DHT22;35067;48.134;8.378;2023-02-11T08:01:34;0.90;96.20
49236;DHT22;35067;48.134;8.378;2023-02-11T08:03:36;0.90;95.30
49236;DHT22;35067;48.134;8.378;2023-02-11T08:05:37;1.10;96.40
49236;DHT22;35067;48.134;8.378;2023-02-11T08:07:38;1.20;93.40
49236;DHT22;35067;48.134;8.378;2023-02-11T08:09:39;0.90;93.70
49236;DHT22;35067;48.134;8.378;2023-02-11T08:11:40;1.00;96.10
49236;DHT22;35067;48.134;8.378;2023-02-11T08:13:41;1.30;96.70
49236;DHT22;35067;48.134;8.378;2023-02-11T08:15:42;1.50;95.40
49236;DHT22;35067;48.134;8.378;2023-02-11T08:17:42;1.50;94.10
49236;DHT22;35067;48.134;8.378;2023-02-11T08:19:43;1.60;95.00
49236;DHT22;35067;48.134;8.378;2023-02-11T08:21:44;1.70;95.40
49236;DHT22;35067;48.134;8.378;2023-02-11T08:23:45;1.90;92.80
49236;DHT22;35067;48.134;8.378;2023-02-11T08:25:46;1.90;94.70
49236;DHT22;35067;48.134;8.378;2023-02-11T08:27:47;2.10;93.30
49236;DHT22;35067;48.134;8.378;2023-02-11T08:29:48;2.10;94.20
49236;DHT22;35067;48.134;8.378;2023-02-11T08:31:48;2.00;94.60
49236;DHT22;35067;48.134;8.378;2023-02-11T08:33:49;2.10;93.00
49236;DHT22;35067;48.134;8.378;2023-02-11T08:35:50;2.20;94.00
49236;DHT22;35067;48.134;8.378;2023-02-11T08:37:51;2.30;92.20
49236;DHT22;35067;48.134;8.378;2023-02-11T08:39:52;2.30;90.30
49236;DHT22;35067;48.134;8.378;2023-02-11T08:41:53;2.10;91.20
49236;DHT22;35067;48.134;8.378;2023-02-11T08:43:56;1.70;91.70
49236;DHT22;35067;48.134;8.378;2023-02-11T08:45:57;1.30;93.80
49236;DHT22;35067;48.134;8.378;2023-02-11T08:47:59;1.60;95.20
49236;DHT22;35067;48.134;8.378;2023-02-11T08:50:00;2.00;95.00
49236;DHT22;35067;48.134;8.378;2023-02-11T08:52:01;2.30;94.90
49236;DHT22;35067;48.134;8.378;2023-02-11T08:54:03;2.60;90.70
49236;DHT22;35067;48.134;8.378;2023-02-11T08:56:05;2.90;87.80
49236;DHT22;35067;48.134;8.378;2023-02-11T08:58:07;2.70;89.70
49236;DHT22;35067;48.134;8.378;2023-02-11T09:00:09;2.90;91.30
49236;DHT22;35067;48.134;8.378;2023-02-11T09:02:14;3.10;88.60
49236;DHT22;35067;48.134;8.378;2023-02-11T09:04:15;3.40;85.80
49236;DHT22;35067;48.134;8.378;2023-02-11T09:06:16;3.50;81.90
49236;DHT22;35067;48.134;8.378;2023-02-11T09:08:18;3.20;80.50
49236;DHT22;35067;48.134;8.378;2023-02-11T09:10:19;3.10;80.80
49236;DHT22;35067;48.134;8.378;2023-02-11T09:12:20;3.00;84.00
49236;DHT22;35067;48.134;8.378;2023-02-11T09:14:22;3.00;85.10
49236;DHT22;35067;48.134;8.378;2023-02-11T09:16:26;2.90;85.50
49236;DHT22;35067;48.134;8.378;2023-02-11T09:18:28;3.00;85.70
49236;DHT22;35067;48.134;8.378;2023-02-11T09:20:29;3.20;87.70
49236;DHT22;35067;48.134;8.378;2023-02-11T09:22:30;3.70;90.00
49236;DHT22;35067;48.134;8.378;2023-02-11T09:24:30;4.10;89.50
49236;DHT22;35067;48.134;8.378;2023-02-11T09:26:33;4.50;81.80
49236;DHT22;35067;48.134;8.378;2023-02-11T09:28:34;4.80;83.70
49236;DHT22;35067;48.134;8.378;2023-02-11T09:30:36;5.00;75.70
49236;DHT22;35067;48.134;8.378;2023-02-11T09:32:37;5.20;74.70
49236;DHT22;35067;48.134;8.378;2023-02-11T09:34:38;5.40;74.00
49236;DHT22;35067;48.134;8.378;2023-02-11T09:36:39;5.40;72.70
49236;DHT22;35067;48.134;8.378;2023-02-11T09:38:41;5.30;73.30
49236;DHT22;35067;48.134;8.378;2023-02-11T09:40:43;5.00;76.10
49236;DHT22;35067;48.134;8.378;2023-02-11T09:42:49;5.20;78.10
49236;DHT22;35067;48.134;8.378;2023-02-11T09:44:53;5.40;76.50
49236;DHT22;35067;48.134;8.378;2023-02-11T09:47:22;5.70;75.10
49236;DHT22;35067;48.134;8.378;2023-02-11T09:49:47;6.00;76.90
49236;DHT22;35067;48.134;8.378;2023-02-11T09:52:07;6.10;71.90
49236;DHT22;35067;48.134;8.378;2023-02-11T09:54:58;6.20;74.10
49236;DHT22;35067;48.134;8.378;2023-02-11T09:57:00;6.30;70.20
49236;DHT22;35067;48.134;8.378;2023-02-11T09:59:01;6.30;70.80
49236;DHT22;35067;48.134;8.378;2023-02-11T10:08:40;8.10;63.80
49236;DHT22;35067;48.134;8.378;2023-02-11T10:11:11;8.50;60.00
49236;DHT22;35067;48.134;8.378;2023-02-11T10:13:31;8.90;60.10
49236;DHT22;35067;48.134;8.378;2023-02-11T10:15:50;9.10;57.10
49236;DHT22;35067;48.134;8.378;2023-02-11T10:18:25;9.60;54.60
49236;DHT22;35067;48.134;8.378;2023-02-11T10:20:44;9.50;54.50
49236;DHT22;35067;48.134;8.378;2023-02-11T10:23:07;9.80;55.20
49236;DHT22;35067;48.134;8.378;2023-02-11T10:25:25;9.60;53.90
49236;DHT22;35067;48.134;8.378;2023-02-11T10:27:41;10.20;53.40
49236;DHT22;35067;48.134;8.378;2023-02-11T10:30:05;10.60;50.60
49236;DHT22;35067;48.134;8.378;2023-02-11T10:35:37;11.50;46.10
49236;DHT22;35067;48.134;8.378;2023-02-11T10:37:37;11.80;45.50
49236;DHT22;35067;48.134;8.378;2023-02-11T10:39:40;12.00;44.10
49236;DHT22;35067;48.134;8.378;2023-02-11T10:41:46;11.70;45.10
49236;DHT22;35067;48.134;8.378;2023-02-11T10:43:49;11.80;45.30
49236;DHT22;35067;48.134;8.378;2023-02-11T10:45:52;12.40;43.30
49236;DHT22;35067;48.134;8.378;2023-02-11T10:47:54;12.70;43.50
49236;DHT22;35067;48.134;8.378;2023-02-11T10:49:55;13.30;41.60
49236;DHT22;35067;48.134;8.378;2023-02-11T10:54:20;13.50;40.60
49236;DHT22;35067;48.134;8.378;2023-02-11T10:56:26;13.20;41.20
49236;DHT22;35067;48.134;8.378;2023-02-11T10:58:34;12.90;40.60
49236;DHT22;35067;48.134;8.378;2023-02-11T11:00:41;12.70;42.20
49236;DHT22;35067;48.134;8.378;2023-02-11T11:02:43;13.00;40.50
49236;DHT22;35067;48.134;8.378;2023-02-11T11:04:46;13.70;40.40
49236;DHT22;35067;48.134;8.378;2023-02-11T11:06:47;14.00;38.70
49236;DHT22;35067;48.134;8.378;2023-02-11T11:08:50;14.50;38.20
49236;DHT22;35067;48.134;8.378;2023-02-11T11:11:05;13.90;40.90
49236;DHT22;35067;48.134;8.378;2023-02-11T11:13:35;14.70;38.70
49236;DHT22;35067;48.134;8.378;2023-02-11T11:15:41;15.60;37.50
49236;DHT22;35067;48.134;8.378;2023-02-11T11:17:41;15.80;34.80
49236;DHT22;35067;48.134;8.378;2023-02-11T11:19:42;15.00;36.80
49236;DHT22;35067;48.134;8.378;2023-02-11T11:21:45;14.00;38.10
49236;DHT22;35067;48.134;8.378;2023-02-11T11:23:54;14.70;37.30
49236;DHT22;35067;48.134;8.378;2023-02-11T11:26:16;16.10;34.80
49236;DHT22;35067;48.134;8.378;2023-02-11T11:28:22;16.90;32.40
49236;DHT22;35067;48.134;8.378;2023-02-11T11:30:40;17.40;31.60
49236;DHT22;35067;48.134;8.378;2023-02-11T11:32:42;16.60;31.40
49236;DHT22;35067;48.134;8.378;2023-02-11T11:34:49;16.10;33.10
49236;DHT22;35067;48.134;8.378;2023-02-11T11:36:51;16.60;31.90
49236;DHT22;35067;48.134;8.378;2023-02-11T11:38:55;17.00;30.40
49236;DHT22;35067;48.134;8.378;2023-02-11T11:43:27;17.20;29.60
49236;DHT22;35067;48.134;8.378;2023-02-11T11:45:28;17.30;29.80
49236;DHT22;35067;48.134;8.378;2023-02-11T11:50:05;18.00;28.80
49236;DHT22;35067;48.134;8.378;2023-02-11T11:54:42;18.70;27.80
49236;DHT22;35067;48.134;8.378;2023-02-11T11:56:55;18.90;27.70
49236;DHT22;35067;48.134;8.378;2023-02-11T11:59:09;19.20;26.80
49236;DHT22;35067;48.134;8.378;2023-02-11T12:15:31;22.30;23.30
49236;DHT22;35067;48.134;8.378;2023-02-11T12:21:11;23.30;22.80
49236;DHT22;35067;48.134;8.378;2023-02-11T12:23:06;23.00;22.70
49236;DHT22;35067;48.134;8.378;2023-02-11T12:25:33;22.60;22.50
49236;DHT22;35067;48.134;8.378;2023-02-11T12:35:23;21.30;24.30
49236;DHT22;35067;48.134;8.378;2023-02-11T12:40:01;23.60;21.80
49236;DHT22;35067;48.134;8.378;2023-02-11T12:47:33;24.30;20.90
49236;DHT22;35067;48.134;8.378;2023-02-11T12:49:57;23.80;20.40
49236;DHT22;35067;48.134;8.378;2023-02-11T12:54:58;23.60;21.20
49236;DHT22;35067;48.134;8.378;2023-02-11T13:00:13;24.10;18.80
49236;DHT22;35067;48.134;8.378;2023-02-11T13:05:21;23.40;16.20
49236;DHT22;35067;48.134;8.378;2023-02-11T13:07:31;22.90;16.00
49236;DHT22;35067;48.134;8.378;2023-02-11T13:10:01;23.00;16.70
49236;DHT22;35067;48.134;8.378;2023-02-11T13:12:09;23.50;15.90
49236;DHT22;35067;48.134;8.378;2023-02-11T13:14:33;24.00;15.50
49236;DHT22;35067;48.134;8.378;2023-02-11T13:16:41;23.50;15.90
49236;DHT22;35067;48.134;8.378;2023-02-11T13:18:53;23.80;15.90
49236;DHT22;35067;48.134;8.378;2023-02-11T13:21:23;23.40;16.20
49236;DHT22;35067;48.134;8.378;2023-02-11T13:23:39;23.00;14.50
49236;DHT22;35067;48.134;8.378;2023-02-11T13:26:09;22.50;14.80
49236;DHT22;35067;48.134;8.378;2023-02-11T13:28:26;22.30;15.40
49236;DHT22;35067;48.134;8.378;2023-02-11T13:30:36;23.10;16.10
49236;DHT22;35067;48.134;8.378;2023-02-11T13:33:05;24.20;14.90
49236;DHT22;35067;48.134;8.378;2023-02-11T13:37:38;24.90;14.10
49236;DHT22;35067;48.134;8.378;2023-02-11T13:39:39;24.50;14.00
49236;DHT22;35067;48.134;8.378;2023-02-11T13:41:40;23.40;12.50
49236;DHT22;35067;48.134;8.378;2023-02-11T13:43:41;24.10;14.40
49236;DHT22;35067;48.134;8.378;2023-02-11T13:45:45;24.60;15.10
49236;DHT22;35067;48.134;8.378;2023-02-11T13:47:47;24.70;15.70
49236;DHT22;35067;48.134;8.378;2023-02-11T13:49:50;25.60;15.30
49236;DHT22;35067;48.134;8.378;2023-02-11T13:51:53;25.10;14.80
49236;DHT22;35067;48.134;8.378;2023-02-11T13:53:56;25.00;15.50
49236;DHT22;35067;48.134;8.378;2023-02-11T13:56:11;24.30;15.20
49236;DHT22;35067;48.134;8.378;2023-02-11T14:02:35;24.80;15.60
49236;DHT22;35067;48.134;8.378;2023-02-11T14:07:31;25.20;15.40
49236;DHT22;35067;48.134;8.378;2023-02-11T14:09:51;25.60;14.90
49236;DHT22;35067;48.134;8.378;2023-02-11T14:12:23;26.40;14.80
49236;DHT22;35067;48.134;8.378;2023-02-11T14:14:30;26.10;14.60
49236;DHT22;35067;48.134;8.378;2023-02-11T14:16:32;25.80;15.50
49236;DHT22;35067;48.134;8.378;2023-02-11T14:20:43;25.00;14.70
49236;DHT22;35067;48.134;8.378;2023-02-11T14:22:49;24.40;15.50
49236;DHT22;35067;48.134;8.378;2023-02-11T14:24:57;23.30;15.90
49236;DHT22;35067;48.134;8.378;2023-02-11T14:27:48;23.30;16.20
49236;DHT22;35067;48.134;8.378;2023-02-11T14:29:44;23.00;15.50
49236;DHT22;35067;48.134;8.378;2023-02-11T14:32:12;23.20;15.30
49236;DHT22;35067;48.134;8.378;2023-02-11T14:37:20;22.40;17.20
49236;DHT22;35067;48.134;8.378;2023-02-11T14:41:53;23.10;17.10
49236;DHT22;35067;48.134;8.378;2023-02-11T14:43:57;23.20;17.90
49236;DHT22;35067;48.134;8.378;2023-02-11T14:46:00;23.50;17.70
49236;DHT22;35067;48.134;8.378;2023-02-11T14:48:29;24.00;17.70
49236;DHT22;35067;48.134;8.378;2023-02-11T14:52:41;24.40;17.70
49236;DHT22;35067;48.134;8.378;2023-02-11T14:54:43;24.60;17.60
49236;DHT22;35067;48.134;8.378;2023-02-11T14:56:44;24.40;16.80
49236;DHT22;35067;48.134;8.378;2023-02-11T14:58:47;25.20;16.40
49236;DHT22;35067;48.134;8.378;2023-02-11T15:01:05;25.70;16.50
49236;DHT22;35067;48.134;8.378;2023-02-11T15:05:26;25.30;16.70
49236;DHT22;35067;48.134;8.378;2023-02-11T15:07:28;25.40;16.80
49236;DHT22;35067;48.134;8.378;2023-02-11T15:09:36;24.70;18.70
49236;DHT22;35067;48.134;8.378;2023-02-11T15:11:42;24.10;19.70